Gerrardstown, West Virginia
Current Conditions -  °F | °C
As of 2:53 PM on Thursday 18 Dec 2014 (Local Time) from KMRB Reporting Station
Few Clouds Few Clouds  
Wind Chill: 30°   Ceiling: Unl
Heat Index: 37°   Visibility: 10mi
Dew Point: 18°   Wind: 10mph
Humidity: 46%   Direction: 310°NW
Pressure: 30.1"   Gusts: 23mph
Location:  39.37°N, 78.1°W
Report Text: KMRB 181953Z 31009G20KT 10SM FEW036 03/M08 A3010 RMK AO2 SLP196 T00281078
Loading
Personal Weather Stations






























Interactive Weather Map New forecast layout! Learn more

10-Day Weather Forecast

Advertisements
Track Severe Weather on mobile